createdAt,value
2017-07-24T00:01:38.062Z,14.60
2017-07-24T00:04:07.263Z,14.60
2017-07-24T00:06:36.454Z,14.60
2017-07-24T00:09:04.220Z,14.60
2017-07-24T00:11:32.685Z,14.60
2017-07-24T00:14:01.171Z,14.60
2017-07-24T00:16:29.643Z,14.60
2017-07-24T00:18:58.115Z,14.60
2017-07-24T00:21:26.534Z,14.50
2017-07-24T00:23:55.747Z,14.40
2017-07-24T00:26:24.979Z,14.30
2017-07-24T00:28:53.411Z,14.20
2017-07-24T00:31:21.890Z,14.20
2017-07-24T00:33:50.323Z,14.30
2017-07-24T00:36:18.755Z,14.30
2017-07-24T00:38:47.180Z,14.30
2017-07-24T00:41:15.615Z,14.30
2017-07-24T00:43:44.130Z,14.20
2017-07-24T00:46:12.553Z,14.20
2017-07-24T00:48:41.684Z,14.20
2017-07-24T00:51:10.895Z,14.20
2017-07-24T00:53:40.094Z,14.20
2017-07-24T00:56:09.275Z,14.20
2017-07-24T00:58:37.711Z,14.10
2017-07-24T01:01:06.191Z,14.20
2017-07-24T01:03:35.291Z,14.30
2017-07-24T01:06:03.711Z,14.30
2017-07-24T01:08:32.135Z,14.30
2017-07-24T01:11:00.580Z,14.30
2017-07-24T01:13:29.010Z,14.30
2017-07-24T01:15:57.434Z,14.30
2017-07-24T01:18:25.887Z,14.40
2017-07-24T01:20:54.335Z,14.40
2017-07-24T01:23:22.758Z,14.20
2017-07-24T01:25:51.203Z,14.30
2017-07-24T01:28:19.623Z,14.30
2017-07-24T01:30:48.082Z,14.20
2017-07-24T01:33:16.500Z,14.20
2017-07-24T01:35:45.011Z,14.30
2017-07-24T01:38:14.198Z,14.30
2017-07-24T01:40:42.639Z,14.20
2017-07-24T01:43:11.078Z,14.40
2017-07-24T01:45:40.275Z,14.50
2017-07-24T01:48:09.086Z,14.50
2017-07-24T01:50:37.535Z,14.40
2017-07-24T01:53:06.718Z,14.50
2017-07-24T01:55:35.331Z,14.40
2017-07-24T01:58:04.279Z,14.30
2017-07-24T02:00:32.364Z,14.30
2017-07-24T02:03:00.787Z,14.30
2017-07-24T02:05:28.884Z,14.40
2017-07-24T02:07:57.443Z,14.40
2017-07-24T02:10:25.883Z,14.50
2017-07-24T02:12:54.383Z,14.30
2017-07-24T02:15:22.818Z,14.30
2017-07-24T02:17:51.299Z,14.40
2017-07-24T02:20:19.716Z,14.40
2017-07-24T02:22:48.846Z,14.30
2017-07-24T02:25:18.037Z,14.30
2017-07-24T02:27:47.258Z,14.20
2017-07-24T02:30:15.698Z,14.10
2017-07-24T02:32:44.122Z,14.10
2017-07-24T02:35:12.559Z,14.20
2017-07-24T02:37:40.969Z,14.20
2017-07-24T02:40:10.074Z,14.30
2017-07-24T02:42:38.509Z,14.20
2017-07-24T02:45:07.692Z,14.10
2017-07-24T02:47:36.124Z,14.20
2017-07-24T02:50:05.240Z,14.20
2017-07-24T02:52:33.699Z,14.20
2017-07-24T02:55:02.907Z,14.30
2017-07-24T02:57:32.162Z,14.10
2017-07-24T03:00:00.590Z,14.10
2017-07-24T03:02:29.787Z,14.10
2017-07-24T03:04:58.223Z,14.10
2017-07-24T03:07:26.815Z,14.10
2017-07-24T03:09:55.254Z,14.20
2017-07-24T03:12:23.687Z,14.10
2017-07-24T03:14:52.782Z,14.10
2017-07-24T03:17:21.407Z,14.00
2017-07-24T03:19:49.835Z,14.10
2017-07-24T03:22:18.263Z,14.10
2017-07-24T03:24:46.695Z,14.10
2017-07-24T03:27:15.128Z,14.10
2017-07-24T03:29:43.574Z,14.10
2017-07-24T03:32:12.707Z,14.00
2017-07-24T03:34:41.142Z,14.00
2017-07-24T03:37:09.662Z,14.10
2017-07-24T03:39:38.864Z,14.10
2017-07-24T03:42:08.079Z,13.90
2017-07-24T03:44:36.512Z,13.90
2017-07-24T03:47:04.923Z,13.70
2017-07-24T03:49:34.118Z,13.80
2017-07-24T03:52:03.329Z,14.00
2017-07-24T03:54:32.522Z,13.90
2017-07-24T03:57:01.710Z,14.00
2017-07-24T03:59:30.915Z,13.90
2017-07-24T04:02:00.096Z,14.00
2017-07-24T04:04:28.535Z,13.90
2017-07-24T04:06:56.967Z,14.00
2017-07-24T04:09:25.407Z,14.00
2017-07-24T04:11:53.829Z,14.00
2017-07-24T04:14:23.041Z,14.10
2017-07-24T04:16:52.214Z,14.10
2017-07-24T04:19:20.643Z,14.10
2017-07-24T04:21:49.215Z,14.20
2017-07-24T04:24:17.655Z,14.30
2017-07-24T04:26:46.086Z,14.30
2017-07-24T04:29:14.525Z,14.30
2017-07-24T04:31:43.145Z,14.40
2017-07-24T04:34:12.335Z,14.40
2017-07-24T04:36:40.787Z,14.40
2017-07-24T04:39:09.901Z,14.50
2017-07-24T04:41:38.343Z,14.50
2017-07-24T04:44:06.764Z,14.60
2017-07-24T04:46:35.198Z,14.60
2017-07-24T04:49:03.623Z,14.60
2017-07-24T04:51:32.079Z,14.70
2017-07-24T04:54:00.489Z,14.70
2017-07-24T04:56:29.707Z,14.80
2017-07-24T04:58:59.022Z,15.00
2017-07-24T05:01:27.554Z,15.00
2017-07-24T05:03:55.977Z,15.10
2017-07-24T05:06:24.409Z,15.10
2017-07-24T05:08:53.731Z,15.20
2017-07-24T05:11:22.189Z,15.10
2017-07-24T05:13:51.355Z,15.10
2017-07-24T05:16:19.783Z,15.20
2017-07-24T05:18:48.908Z,15.10
2017-07-24T05:21:18.123Z,15.20
2017-07-24T05:23:46.629Z,15.20
2017-07-24T05:26:15.055Z,15.20
2017-07-24T05:28:43.500Z,15.20
2017-07-24T05:31:12.612Z,15.10
2017-07-24T05:33:41.033Z,15.20
2017-07-24T05:36:10.230Z,15.40
2017-07-24T05:38:39.398Z,15.70
2017-07-24T05:41:07.846Z,15.60
2017-07-24T05:43:37.814Z,15.90
2017-07-24T05:46:06.251Z,15.90
2017-07-24T05:48:34.671Z,16.10
2017-07-24T05:51:03.097Z,16.30
2017-07-24T05:53:32.230Z,16.30
2017-07-24T05:56:00.690Z,16.30
2017-07-24T05:58:29.245Z,16.40
2017-07-24T06:00:57.664Z,16.50
2017-07-24T06:03:26.102Z,16.80
2017-07-24T06:05:55.300Z,17.00
2017-07-24T06:08:24.490Z,17.10
2017-07-24T06:10:53.699Z,17.20
2017-07-24T06:13:22.918Z,17.10
2017-07-24T06:15:51.363Z,17.10
2017-07-24T06:18:19.128Z,17.20
2017-07-24T06:20:47.642Z,17.10
2017-07-24T06:23:16.073Z,17.10
2017-07-24T06:25:44.512Z,17.00
2017-07-24T06:28:12.967Z,16.90
2017-07-24T06:30:42.155Z,16.80
2017-07-24T06:33:10.595Z,16.70
2017-07-24T06:35:39.031Z,16.90
2017-07-24T06:38:08.222Z,17.40
2017-07-24T06:40:37.492Z,17.80
2017-07-24T06:43:05.932Z,17.80
2017-07-24T06:45:34.399Z,17.90
2017-07-24T06:48:03.602Z,17.80
2017-07-24T06:50:32.767Z,17.80
2017-07-24T06:53:01.226Z,17.60
2017-07-24T06:55:31.359Z,17.60
2017-07-24T06:57:59.995Z,17.70
2017-07-24T07:00:29.182Z,18.10
2017-07-24T07:02:57.675Z,18.10
2017-07-24T07:05:26.866Z,18.30
2017-07-24T07:07:56.170Z,18.40
2017-07-24T07:10:25.531Z,18.50
2017-07-24T07:12:53.967Z,18.40
2017-07-24T07:15:22.431Z,18.50
2017-07-24T07:17:50.840Z,18.70
2017-07-24T07:20:19.278Z,18.70
2017-07-24T07:22:47.686Z,18.60
2017-07-24T07:25:16.123Z,18.40
2017-07-24T07:27:44.550Z,18.40
2017-07-24T07:30:13.659Z,18.30
2017-07-24T07:32:42.143Z,18.30
2017-07-24T07:35:10.584Z,18.40
2017-07-24T07:37:39.636Z,18.20
2017-07-24T07:40:08.747Z,17.90
2017-07-24T07:42:37.179Z,18.00
2017-07-24T07:45:06.289Z,18.00
2017-07-24T07:47:34.734Z,18.20
2017-07-24T07:50:03.201Z,18.00
2017-07-24T07:52:31.713Z,18.30
2017-07-24T07:55:00.198Z,18.10
2017-07-24T07:57:31.687Z,18.30
2017-07-24T08:00:00.115Z,18.40
2017-07-24T08:02:28.578Z,18.40
2017-07-24T08:04:56.997Z,18.20
2017-07-24T08:07:25.430Z,18.10
2017-07-24T08:09:53.856Z,18.40
2017-07-24T08:12:22.107Z,18.50
2017-07-24T08:14:50.506Z,18.40
2017-07-24T08:17:19.710Z,17.60
2017-07-24T08:19:48.919Z,17.10
2017-07-24T08:22:18.129Z,16.90
2017-07-24T08:24:46.563Z,16.80
2017-07-24T08:27:14.999Z,16.80
2017-07-24T08:29:43.562Z,16.80
2017-07-24T08:32:12.771Z,17.20
2017-07-24T08:34:42.038Z,17.60
2017-07-24T08:37:10.458Z,17.50
2017-07-24T08:39:40.374Z,17.60
2017-07-24T08:42:08.837Z,17.60
2017-07-24T08:44:38.259Z,17.00
2017-07-24T08:47:06.712Z,16.70
2017-07-24T08:49:35.126Z,16.60
2017-07-24T08:52:03.554Z,16.50
2017-07-24T08:54:31.984Z,16.70
2017-07-24T08:57:00.408Z,16.70
2017-07-24T08:59:28.826Z,16.70
2017-07-24T09:01:57.239Z,16.50
2017-07-24T09:04:25.806Z,16.60
2017-07-24T09:06:54.918Z,16.50
2017-07-24T09:09:23.363Z,16.60
2017-07-24T09:11:51.805Z,16.60
2017-07-24T09:14:20.260Z,16.60
2017-07-24T09:16:48.703Z,16.70
2017-07-24T09:19:17.830Z,16.70
2017-07-24T09:21:46.247Z,16.80
2017-07-24T09:24:14.683Z,16.90
2017-07-24T09:26:43.098Z,16.90
2017-07-24T09:29:11.543Z,17.10
2017-07-24T09:31:40.364Z,17.10
2017-07-24T09:34:08.803Z,17.20
2017-07-24T09:36:37.222Z,17.20
2017-07-24T09:39:05.317Z,17.60
2017-07-24T09:41:33.752Z,17.60
2017-07-24T09:44:02.180Z,17.30
2017-07-24T09:46:30.700Z,17.10
2017-07-24T09:48:59.118Z,17.10
2017-07-24T09:51:27.951Z,16.70
2017-07-24T09:53:56.391Z,16.70
2017-07-24T09:56:24.814Z,16.70
2017-07-24T09:58:53.250Z,16.90
2017-07-24T10:01:21.677Z,17.10
2017-07-24T10:03:50.196Z,17.10
2017-07-24T10:06:18.612Z,17.40
2017-07-24T10:08:47.045Z,17.30
2017-07-24T10:11:15.482Z,17.80
2017-07-24T10:13:43.901Z,17.80
2017-07-24T10:16:12.344Z,17.80
2017-07-24T10:18:40.778Z,17.90
2017-07-24T10:21:09.206Z,17.80
2017-07-24T10:23:37.640Z,17.80
2017-07-24T10:26:06.149Z,18.20
2017-07-24T10:28:34.574Z,18.20
2017-07-24T10:31:02.992Z,18.50
2017-07-24T10:33:31.453Z,18.60
2017-07-24T10:35:59.930Z,18.30
2017-07-24T10:38:28.372Z,18.10
2017-07-24T10:40:56.819Z,18.30
2017-07-24T10:43:25.252Z,18.30
2017-07-24T10:45:54.394Z,18.50
2017-07-24T10:48:22.816Z,18.30
2017-07-24T10:50:51.249Z,18.40
2017-07-24T10:53:19.718Z,18.40
2017-07-24T10:55:48.153Z,18.60
2017-07-24T10:58:17.255Z,19.00
2017-07-24T11:00:45.710Z,19.20
2017-07-24T11:03:14.147Z,18.30
2017-07-24T11:05:42.582Z,18.20
2017-07-24T11:08:11.030Z,17.80
2017-07-24T11:10:39.463Z,17.50
2017-07-24T11:13:08.006Z,17.40
2017-07-24T11:15:36.511Z,17.30
2017-07-24T11:18:04.951Z,17.10
2017-07-24T11:20:34.067Z,17.00
2017-07-24T11:23:02.499Z,17.00
2017-07-24T11:25:30.919Z,17.20
2017-07-24T11:27:59.355Z,17.80
2017-07-24T11:30:27.775Z,18.40
2017-07-24T11:32:56.247Z,18.50
2017-07-24T11:35:24.667Z,18.70
2017-07-24T11:37:53.102Z,18.60
2017-07-24T11:40:21.553Z,18.20
2017-07-24T11:42:49.994Z,17.90
2017-07-24T11:45:18.474Z,17.40
2017-07-24T11:47:46.910Z,17.30
2017-07-24T11:50:15.362Z,17.40
2017-07-24T11:52:43.771Z,17.80
2017-07-24T11:55:12.223Z,17.80
2017-07-24T11:57:40.663Z,18.30
2017-07-24T12:00:09.096Z,18.40
2017-07-24T12:02:37.523Z,18.40
2017-07-24T12:05:05.960Z,19.00
2017-07-24T12:07:34.368Z,18.70
2017-07-24T12:10:02.807Z,18.50
2017-07-24T12:12:31.921Z,18.70
2017-07-24T12:15:00.366Z,19.20
2017-07-24T12:17:28.787Z,19.40
2017-07-24T12:19:57.326Z,19.50
2017-07-24T12:22:25.769Z,19.20
2017-07-24T12:24:54.302Z,18.50
2017-07-24T12:27:22.783Z,18.80
2017-07-24T12:29:51.238Z,18.50
2017-07-24T12:32:19.697Z,18.50
2017-07-24T12:34:48.140Z,18.60
2017-07-24T12:37:16.575Z,18.70
2017-07-24T12:39:45.020Z,18.60
2017-07-24T12:42:13.442Z,18.70
2017-07-24T12:44:41.880Z,18.70
2017-07-24T12:47:10.399Z,20.60
2017-07-24T12:49:38.822Z,18.50
2017-07-24T12:52:07.937Z,18.50
2017-07-24T12:54:36.372Z,18.50
2017-07-24T12:57:04.825Z,18.60
2017-07-24T12:59:33.254Z,18.30
2017-07-24T13:02:01.706Z,18.30
2017-07-24T13:04:30.179Z,18.50
2017-07-24T13:06:58.635Z,18.50
2017-07-24T13:09:27.054Z,18.70
2017-07-24T13:11:55.496Z,19.00
2017-07-24T13:14:23.911Z,19.20
2017-07-24T13:16:52.400Z,19.20
2017-07-24T13:19:20.834Z,19.20
2017-07-24T13:21:49.303Z,19.20
2017-07-24T13:24:17.719Z,18.90
2017-07-24T13:26:46.183Z,19.20
2017-07-24T13:29:14.603Z,19.60
2017-07-24T13:31:43.057Z,20.10
2017-07-24T13:34:12.179Z,20.60
2017-07-24T13:36:40.642Z,21.30
2017-07-24T13:39:09.053Z,20.90
2017-07-24T13:41:38.181Z,20.60
2017-07-24T13:44:06.637Z,20.30
2017-07-24T13:46:35.063Z,20.80
2017-07-24T13:49:03.527Z,20.50
2017-07-24T13:51:32.005Z,20.50
2017-07-24T13:54:00.439Z,20.50
2017-07-24T13:56:28.894Z,20.70
2017-07-24T13:58:57.351Z,20.80
2017-07-24T14:01:25.758Z,21.10
2017-07-24T14:03:54.218Z,20.60
2017-07-24T14:06:22.650Z,20.30
2017-07-24T14:08:51.095Z,19.70
2017-07-24T14:11:19.515Z,19.60
2017-07-24T14:13:47.951Z,19.50
2017-07-24T14:16:16.454Z,19.80
2017-07-24T14:18:44.922Z,20.80
2017-07-24T14:21:13.357Z,21.00
2017-07-24T14:23:41.795Z,20.00
2017-07-24T14:26:10.239Z,19.60
2017-07-24T14:28:38.674Z,19.50
2017-07-24T14:31:07.110Z,19.40
2017-07-24T14:33:35.563Z,19.30
2017-07-24T14:36:04.075Z,18.90
2017-07-24T14:38:33.282Z,18.80
2017-07-24T14:41:02.619Z,18.60
2017-07-24T14:43:31.075Z,18.50
2017-07-24T14:46:00.180Z,18.50
2017-07-24T14:48:29.284Z,18.20
2017-07-24T14:50:57.741Z,17.10
2017-07-24T14:53:26.930Z,15.50
2017-07-24T14:55:56.138Z,15.50
2017-07-24T14:58:25.323Z,15.50
2017-07-24T15:00:53.766Z,15.50
2017-07-24T15:03:22.187Z,15.90
2017-07-24T15:05:50.638Z,16.30
2017-07-24T15:08:19.050Z,16.70
2017-07-24T15:10:48.402Z,18.20
2017-07-24T15:13:16.832Z,18.10
2017-07-24T15:15:45.274Z,18.40
2017-07-24T15:18:13.714Z,18.50
2017-07-24T15:20:42.932Z,19.30
2017-07-24T15:23:11.340Z,19.30
2017-07-24T15:25:39.811Z,19.80
2017-07-24T15:28:08.401Z,20.10
2017-07-24T15:30:36.842Z,20.30
2017-07-24T15:33:06.106Z,19.90
2017-07-24T15:35:34.748Z,19.80
2017-07-24T15:38:03.209Z,20.10
2017-07-24T15:40:32.414Z,19.90
2017-07-24T15:43:00.894Z,19.90
2017-07-24T15:45:30.094Z,19.60
2017-07-24T15:47:59.291Z,18.80
2017-07-24T15:50:28.503Z,18.20
2017-07-24T15:52:56.951Z,18.20
2017-07-24T15:55:25.398Z,18.00
2017-07-24T15:57:53.850Z,17.90
2017-07-24T16:00:22.304Z,17.40
2017-07-24T16:02:51.027Z,16.90
2017-07-24T16:05:20.114Z,16.50
2017-07-24T16:07:48.655Z,16.20
2017-07-24T16:10:17.088Z,15.90
2017-07-24T16:12:45.551Z,15.90
2017-07-24T16:15:13.975Z,15.90
2017-07-24T16:17:42.407Z,15.70
2017-07-24T16:20:10.951Z,15.80
2017-07-24T16:22:39.382Z,15.90
2017-07-24T16:25:07.920Z,15.80
2017-07-24T16:27:36.370Z,15.80
2017-07-24T16:30:04.943Z,15.80
2017-07-24T16:32:33.532Z,16.50
2017-07-24T16:35:01.962Z,17.30
2017-07-24T16:37:31.093Z,18.00
2017-07-24T16:40:00.282Z,18.90
2017-07-24T16:42:29.487Z,18.60
2017-07-24T16:44:58.684Z,18.70
2017-07-24T16:47:27.888Z,18.70
2017-07-24T16:49:57.069Z,17.70
2017-07-24T16:52:25.530Z,17.70
2017-07-24T16:54:53.995Z,17.10
2017-07-24T16:57:22.449Z,16.70
2017-07-24T16:59:50.886Z,16.80
2017-07-24T17:02:19.325Z,16.70
2017-07-24T17:04:47.765Z,16.60
2017-07-24T17:07:16.981Z,16.50
2017-07-24T17:09:46.159Z,16.10
2017-07-24T17:12:15.310Z,16.10
2017-07-24T17:14:43.759Z,15.90
2017-07-24T17:17:12.972Z,15.60
2017-07-24T17:19:42.079Z,15.50
2017-07-24T17:22:10.515Z,15.40
2017-07-24T17:24:39.027Z,15.30
2017-07-24T17:27:07.736Z,15.10
2017-07-24T17:29:36.123Z,15.00
2017-07-24T17:32:04.549Z,15.20
2017-07-24T17:34:33.750Z,14.90
2017-07-24T17:37:02.950Z,14.80
2017-07-24T17:39:32.181Z,14.90
2017-07-24T17:42:00.649Z,14.80
2017-07-24T17:44:32.853Z,14.80
2017-07-24T17:47:01.275Z,14.70
2017-07-24T17:49:29.711Z,14.80
2017-07-24T17:51:59.603Z,14.50
2017-07-24T17:54:28.039Z,14.40
2017-07-24T17:56:56.569Z,14.40
2017-07-24T17:59:25.028Z,14.40
2017-07-24T18:01:54.219Z,14.20
2017-07-24T18:04:22.669Z,14.10
2017-07-24T18:06:51.137Z,13.90
2017-07-24T18:09:19.566Z,13.80
2017-07-24T18:11:48.011Z,13.80
2017-07-24T18:14:16.471Z,13.70
2017-07-24T18:16:44.947Z,13.50
2017-07-24T18:19:13.214Z,13.50
2017-07-24T18:21:41.634Z,13.40
2017-07-24T18:24:09.908Z,13.50
2017-07-24T18:26:38.343Z,13.30
2017-07-24T18:29:07.487Z,13.30
2017-07-24T18:31:35.915Z,13.20
2017-07-24T18:34:05.119Z,13.30
2017-07-24T18:36:34.508Z,13.40
2017-07-24T18:39:03.050Z,13.30
2017-07-24T18:41:32.174Z,13.40
2017-07-24T18:44:00.635Z,13.50
2017-07-24T18:46:29.063Z,13.50
2017-07-24T18:48:58.308Z,13.40
2017-07-24T18:51:26.738Z,13.40
2017-07-24T18:53:55.151Z,13.50
2017-07-24T18:56:23.627Z,13.30
2017-07-24T18:58:52.223Z,13.30
2017-07-24T19:01:20.761Z,13.20
2017-07-24T19:03:49.192Z,13.10
2017-07-24T19:06:17.649Z,13.10
2017-07-24T19:08:47.085Z,13.00
2017-07-24T19:11:15.554Z,13.00
2017-07-24T19:13:43.982Z,13.10
2017-07-24T19:16:12.433Z,12.90
2017-07-24T19:18:40.868Z,13.00
2017-07-24T19:21:10.087Z,12.80
2017-07-24T19:23:38.560Z,12.70
2017-07-24T19:26:07.764Z,12.80
2017-07-24T19:28:36.981Z,12.80
2017-07-24T19:31:05.424Z,12.70
2017-07-24T19:33:33.921Z,12.80
2017-07-24T19:36:03.135Z,12.80
2017-07-24T19:38:31.597Z,12.70
2017-07-24T19:41:00.947Z,12.90
2017-07-24T19:43:29.364Z,12.80
2017-07-24T19:45:58.599Z,12.90
2017-07-24T19:48:27.800Z,12.80
2017-07-24T19:50:56.255Z,12.80
2017-07-24T19:53:24.691Z,12.80
2017-07-24T19:55:53.138Z,12.70
2017-07-24T19:58:22.356Z,12.70
2017-07-24T20:00:50.810Z,12.70
2017-07-24T20:03:20.018Z,12.90
2017-07-24T20:05:49.218Z,12.70
2017-07-24T20:08:18.434Z,12.70
2017-07-24T20:10:46.876Z,12.70
2017-07-24T20:13:15.335Z,12.80
2017-07-24T20:15:43.764Z,12.80
2017-07-24T20:18:12.972Z,12.70
2017-07-24T20:20:41.383Z,12.60
2017-07-24T20:23:09.831Z,12.60
2017-07-24T20:25:38.263Z,12.60
2017-07-24T20:28:06.702Z,12.70
2017-07-24T20:30:35.167Z,12.70
2017-07-24T20:33:04.388Z,12.80
2017-07-24T20:35:32.806Z,12.70
2017-07-24T20:38:01.302Z,12.80
2017-07-24T20:40:29.767Z,12.80
2017-07-24T20:42:58.204Z,12.90
2017-07-24T20:45:26.629Z,12.90
2017-07-24T20:47:55.765Z,12.80
2017-07-24T20:50:24.946Z,12.90
2017-07-24T20:52:54.179Z,12.90
2017-07-24T20:55:22.627Z,12.90
2017-07-24T20:57:51.091Z,13.00
2017-07-24T21:00:19.522Z,13.00
2017-07-24T21:02:48.702Z,12.90
2017-07-24T21:05:17.834Z,12.90
2017-07-24T21:07:46.251Z,13.00
2017-07-24T21:10:14.743Z,13.10
2017-07-24T21:12:43.171Z,13.10
2017-07-24T21:15:11.619Z,13.10
2017-07-24T21:17:40.046Z,13.00
2017-07-24T21:20:08.644Z,13.00
2017-07-24T21:22:37.755Z,13.00
2017-07-24T21:25:06.252Z,12.90
2017-07-24T21:27:34.701Z,12.90
2017-07-24T21:30:03.252Z,12.90
2017-07-24T21:32:32.404Z,12.90
2017-07-24T21:35:00.865Z,12.80
2017-07-24T21:37:29.422Z,12.80
2017-07-24T21:39:57.879Z,12.80
2017-07-24T21:42:27.018Z,12.80
2017-07-24T21:44:55.444Z,12.80
2017-07-24T21:47:23.873Z,12.90
2017-07-24T21:49:52.294Z,12.90
2017-07-24T21:52:20.867Z,12.90
2017-07-24T21:54:49.291Z,13.00
2017-07-24T21:57:17.730Z,13.00
2017-07-24T21:59:46.181Z,13.00
2017-07-24T22:02:14.617Z,13.10
2017-07-24T22:04:43.049Z,13.10
2017-07-24T22:07:11.491Z,13.10
2017-07-24T22:09:39.910Z,13.20
2017-07-24T22:12:09.799Z,13.20
2017-07-24T22:14:38.992Z,13.20
2017-07-24T22:17:08.215Z,13.20
2017-07-24T22:19:37.396Z,13.20
2017-07-24T22:22:06.611Z,13.20
2017-07-24T22:24:35.799Z,13.20
2017-07-24T22:27:05.047Z,13.20
2017-07-24T22:29:33.468Z,13.20
2017-07-24T22:32:01.907Z,13.20
2017-07-24T22:34:30.323Z,13.20
2017-07-24T22:36:58.743Z,13.20
2017-07-24T22:39:27.184Z,13.20
2017-07-24T22:41:55.594Z,13.20
2017-07-24T22:44:24.075Z,13.20
2017-07-24T22:46:53.272Z,13.10
2017-07-24T22:49:22.467Z,13.10
2017-07-24T22:51:51.731Z,13.20
2017-07-24T22:54:20.166Z,13.10
2017-07-24T22:56:48.586Z,13.10
2017-07-24T22:59:17.715Z,13.10
2017-07-24T23:01:46.147Z,13.10
2017-07-24T23:04:14.674Z,13.10
2017-07-24T23:06:43.090Z,13.00
2017-07-24T23:09:11.667Z,13.00
2017-07-24T23:11:40.855Z,12.90
2017-07-24T23:14:10.070Z,12.80
2017-07-24T23:16:38.514Z,12.80
2017-07-24T23:19:08.470Z,12.80
2017-07-24T23:21:36.898Z,12.80
2017-07-24T23:24:05.343Z,12.80
2017-07-24T23:26:33.761Z,12.80
2017-07-24T23:29:02.210Z,12.80
2017-07-24T23:31:30.630Z,12.80
2017-07-24T23:33:59.070Z,12.70
2017-07-24T23:36:27.490Z,12.80
2017-07-24T23:38:55.928Z,12.80
2017-07-24T23:41:24.343Z,12.80
2017-07-24T23:43:52.770Z,12.80
2017-07-24T23:46:21.970Z,12.80
2017-07-24T23:48:51.171Z,12.80
2017-07-24T23:51:20.355Z,12.80
2017-07-24T23:53:48.773Z,12.70
2017-07-24T23:56:17.219Z,12.90
2017-07-24T23:58:46.403Z,12.80
